METAR Data
IDs: Format: Raw Decoded Include TAF

Data at: 1459 UTC 18 Aug 2019

PASL 181456Z AUTO VRB03KT 10SM CLR 10/05 A3036 RMK AO2 SLP279 T01000050 56007
PASL 181256Z AUTO VRB04KT 10SM CLR 11/06 A3038 RMK AO2 SLP284 T01110056
PASL 181056Z AUTO VRB03KT 10SM CLR 11/06 A3039 RMK AO2 SLP289 T01110061
PASL 180856Z AUTO VRB05KT 10SM CLR 13/06 A3040 RMK AO2 SLP293 T01330061 401940078 58006
PASL 180756Z AUTO VRB05KT 10SM CLR 14/06 A3041 RMK AO2 SLP295 T01390061
PASL 180556Z AUTO VRB03KT 10SM CLR 15/08 A3042 RMK AO2 SLP299 T01500078 10194 20150 58001
PASL 180456Z AUTO VRB04KT 10SM CLR 16/08 A3042 RMK AO2 SLP300 T01610078
PASL 180356Z AUTO VRB06KT 10SM CLR 17/07 A3043 RMK AO2 SLP301 T01720072
PASL 180156Z AUTO 02006KT 10SM CLR 19/07 A3043 RMK AO2 SLP303 T01940072
PASL 180056Z AUTO VRB05KT 10SM CLR 19/07 A3044 RMK AO2 SLP304 T01890072
PASL 172356Z AUTO 01007KT 330V040 10SM CLR 19/08 A3045 RMK AO2 SLP307 T01890078 10189 20117 58013
PASL 172256Z AUTO VRB04KT 10SM CLR 18/08 A3046 RMK AO2 SLP311 T01830083
PASL 172156Z AUTO VRB05KT 9SM CLR 17/08 A3048 RMK AO2 SLP317 T01670078
PASL 172056Z AUTO VRB03KT 10SM FEW038 16/07 A3049 RMK AO2 SLP320 T01560072 58004
PASL 171856Z AUTO VRB04KT 10SM CLR 13/07 A3050 RMK AO2 SLP325 T01280067
PASL 171756Z AUTO VRB03KT 10SM CLR 12/07 A3050 RMK AO2 SLP325 T01170072 10117 20078 50000
PASL 171556Z AUTO 00000KT 10SM CLR 08/07 A3050 RMK AO2 SLP327 T00830072
PASL 171356Z AUTO VRB03KT 10SM FEW024 09/08 A3049 RMK AO2 SLP324 T00940083
PASL 171256Z AUTO 00000KT 10SM CLR 10/09 A3048 RMK AO2 SLP320 T01000089
PASL 171156Z AUTO 00000KT 10SM CLR 11/09 A3048 RMK AO2 SLP318 60000 70001 T01110094 10144 20111 53005
PASL 171056Z AUTO VRB03KT 10SM FEW019 12/11 A3047 RMK AO2 SLP315 T01220106
PASL 171045Z AUTO 00000KT 10SM FEW019 SCT025 12/11 A3046 RMK AO2
PASL 171006Z AUTO 00000KT 10SM BKN021 OVC120 12/12 A3046 RMK AO2
PASL 170956Z AUTO 00000KT 10SM FEW021 SCT026 BKN120 13/12 A3046 RMK AO2 RAB11E29 SLP313 P0000 T01280117
PASL 170954Z AUTO 00000KT 10SM SCT026 OVC120 13/12 A3046 RMK AO2 RAB11E29 P0000
PASL 170756Z AUTO 00000KT 10SM BKN016 OVC120 14/12 A3045 RMK AO2 SLP309 T01390122
PASL 170648Z AUTO 00000KT 10SM BKN018 OVC090 14/12 A3043 RMK AO2
PASL 170456Z AUTO 00000KT 10SM BKN025 OVC070 15/12 A3044 RMK AO2 SLP306 T01500122
PASL 170449Z AUTO 00000KT 10SM BKN026 OVC065 15/12 A3044 RMK AO2
PASL 170356Z AUTO 00000KT 10SM FEW020 OVC060 14/12 A3045 RMK AO2 RAE0259 SLP308 P0000 T01440122
PASL 170310Z AUTO 00000KT 10SM FEW016 BKN033 OVC040 14/13 A3046 RMK AO2 RAE0259 P0000